createdAt,value
2023-04-13T00:01:08.723Z,84.62
2023-04-13T00:06:04.239Z,81.46
2023-04-13T00:10:54.687Z,87.32
2023-04-13T00:15:48.251Z,83.89
2023-04-13T00:20:43.996Z,85.61
2023-04-13T00:25:37.394Z,87.68
2023-04-13T00:30:34.226Z,86.13
2023-04-13T00:35:28.287Z,92.25
2023-04-13T00:40:34.099Z,88.53
2023-04-13T00:45:28.482Z,81.92
2023-04-13T00:50:25.498Z,87.46
2023-04-13T00:55:23.522Z,90.58
2023-04-13T01:00:21.451Z,87.43
2023-04-13T01:05:19.206Z,95.35
2023-04-13T01:10:17.647Z,87.38
2023-04-13T01:15:27.648Z,94.45
2023-04-13T01:20:25.412Z,90.13
2023-04-13T01:25:26.469Z,88.68
2023-04-13T01:30:28.370Z,95.99
2023-04-13T01:35:23.122Z,94.35
2023-04-13T01:40:28.440Z,87.54
2023-04-13T01:45:29.385Z,88.82
2023-04-13T01:50:31.237Z,84.60
2023-04-13T01:55:33.803Z,90.15
2023-04-13T02:00:39.626Z,87.05
2023-04-13T02:05:41.993Z,84.10
2023-04-13T02:10:40.982Z,85.99
2023-04-13T02:15:35.881Z,92.51
2023-04-13T02:20:26.503Z,88.66
2023-04-13T02:25:19.494Z,93.18
2023-04-13T02:30:15.916Z,92.07
2023-04-13T02:35:10.477Z,92.61
2023-04-13T02:40:02.564Z,89.96
2023-04-13T02:44:56.315Z,92.83
2023-04-13T02:49:48.204Z,89.73
2023-04-13T02:54:54.777Z,86.50
2023-04-13T02:59:53.151Z,90.50
2023-04-13T03:04:53.520Z,86.86
2023-04-13T03:09:47.071Z,90.84
2023-04-13T03:14:41.488Z,88.73
2023-04-13T03:19:36.533Z,86.54
2023-04-13T03:24:35.924Z,91.11
2023-04-13T03:29:32.130Z,87.80
2023-04-13T03:34:25.189Z,84.48
2023-04-13T03:39:17.241Z,88.45
2023-04-13T03:44:12.224Z,84.39
2023-04-13T03:49:09.511Z,86.04
2023-04-13T03:54:01.742Z,85.73
2023-04-13T03:58:53.315Z,87.24
2023-04-13T04:03:56.730Z,84.95
2023-04-13T04:08:51.559Z,87.83
2023-04-13T04:13:56.145Z,85.29
2023-04-13T04:18:48.176Z,84.38
2023-04-13T04:23:47.624Z,82.81
2023-04-13T04:28:41.983Z,82.25
2023-04-13T04:33:39.090Z,82.37
2023-04-13T04:38:33.553Z,82.82
2023-04-13T04:43:46.796Z,82.50
2023-04-13T04:48:46.133Z,81.46
2023-04-13T04:53:45.019Z,82.02
2023-04-13T04:58:40.955Z,85.04
2023-04-13T05:03:49.106Z,88.66
2023-04-13T05:08:53.452Z,87.01
2023-04-13T05:13:56.947Z,85.17
2023-04-13T05:18:59.833Z,89.32
2023-04-13T05:24:26.212Z,91.30
2023-04-13T05:29:18.003Z,93.37
2023-04-13T05:34:13.252Z,92.27
2023-04-13T05:39:12.458Z,92.33
2023-04-13T05:44:03.421Z,90.28
2023-04-13T05:48:58.552Z,93.86
2023-04-13T05:53:53.529Z,91.79
2023-04-13T05:58:45.230Z,96.02
2023-04-13T06:03:44.411Z,85.08
2023-04-13T06:08:35.840Z,87.79
2023-04-13T06:13:28.063Z,91.71
2023-04-13T06:18:18.656Z,94.83
2023-04-13T06:23:12.303Z,98.50
2023-04-13T06:28:10.059Z,99.00
2023-04-13T06:33:12.688Z,96.74
2023-04-13T06:38:08.614Z,92.69
2023-04-13T06:43:22.644Z,95.23
2023-04-13T06:48:44.578Z,97.27
2023-04-13T06:53:36.589Z,94.32
2023-04-13T06:58:31.865Z,96.41
2023-04-13T07:03:27.121Z,93.83
2023-04-13T07:08:21.848Z,92.74
2023-04-13T07:13:21.106Z,91.19
2023-04-13T07:18:12.003Z,91.28
2023-04-13T07:23:03.065Z,86.33
2023-04-13T07:28:00.826Z,84.51
2023-04-13T07:32:54.448Z,82.16
2023-04-13T07:37:47.749Z,80.64
2023-04-13T07:42:48.799Z,80.21
2023-04-13T07:47:46.432Z,80.33
2023-04-13T07:52:43.136Z,79.01
2023-04-13T07:57:34.321Z,78.77
2023-04-13T08:02:32.313Z,77.53
2023-04-13T08:07:28.033Z,75.73
2023-04-13T08:12:21.681Z,76.16
2023-04-13T08:17:14.645Z,78.57
2023-04-13T08:22:07.855Z,81.08
2023-04-13T08:27:04.257Z,83.32
2023-04-13T08:31:54.820Z,83.12
2023-04-13T08:36:47.415Z,82.03
2023-04-13T08:41:44.323Z,82.83
2023-04-13T08:46:42.856Z,83.04
2023-04-13T08:51:42.602Z,79.97
2023-04-13T08:56:45.493Z,77.53
2023-04-13T09:01:57.018Z,76.91
2023-04-13T09:06:55.359Z,76.05
2023-04-13T09:11:51.548Z,72.36
2023-04-13T09:16:44.284Z,70.48
2023-04-13T09:21:46.731Z,71.00
2023-04-13T09:26:46.983Z,70.81
2023-04-13T09:31:39.152Z,71.01
2023-04-13T09:36:33.312Z,71.06
2023-04-13T09:41:48.380Z,68.45
2023-04-13T09:46:45.289Z,70.29
2023-04-13T09:51:46.032Z,70.46
2023-04-13T09:56:54.054Z,68.52
2023-04-13T10:01:46.928Z,68.73
2023-04-13T10:06:46.187Z,69.74
2023-04-13T10:11:42.774Z,69.58
2023-04-13T10:17:06.347Z,69.08
2023-04-13T10:22:02.632Z,69.53
2023-04-13T10:26:59.136Z,69.20
2023-04-13T10:32:00.730Z,69.09
2023-04-13T10:37:15.829Z,68.10
2023-04-13T10:42:18.076Z,68.70
2023-04-13T10:47:09.724Z,67.78
2023-04-13T10:52:02.887Z,65.77
2023-04-13T10:57:07.107Z,65.53
2023-04-13T11:01:58.365Z,64.74
2023-04-13T11:06:51.906Z,65.88
2023-04-13T11:11:56.898Z,64.48
2023-04-13T11:16:58.484Z,63.87
2023-04-13T11:22:00.265Z,64.76
2023-04-13T11:27:00.919Z,64.84
2023-04-13T11:31:55.915Z,63.96
2023-04-13T11:36:54.353Z,62.91
2023-04-13T11:41:47.757Z,60.78
2023-04-13T11:46:41.852Z,59.30
2023-04-13T11:51:38.526Z,59.65
2023-04-13T11:56:29.236Z,58.92
2023-04-13T12:01:26.178Z,57.69
2023-04-13T12:06:22.296Z,57.37
2023-04-13T12:11:40.500Z,55.13
2023-04-13T12:17:01.687Z,56.31
2023-04-13T12:22:12.118Z,55.50
2023-04-13T12:32:12.241Z,56.38
2023-04-13T12:37:05.487Z,55.54
2023-04-13T12:41:57.174Z,56.07
2023-04-13T12:46:53.370Z,55.36
2023-04-13T12:51:47.851Z,53.78
2023-04-13T12:56:46.208Z,55.27
2023-04-13T13:01:39.458Z,56.29
2023-04-13T13:06:36.845Z,52.96
2023-04-13T13:11:29.832Z,52.85
2023-04-13T13:16:23.636Z,54.13
2023-04-13T13:21:17.524Z,52.97
2023-04-13T13:31:08.999Z,51.11
2023-04-13T13:36:04.863Z,50.92
2023-04-13T13:40:58.077Z,52.74
2023-04-13T13:45:51.926Z,52.80
2023-04-13T13:50:46.847Z,53.02
2023-04-13T13:55:48.754Z,54.26
2023-04-13T14:00:43.252Z,54.68
2023-04-13T14:05:35.781Z,54.55
2023-04-13T14:10:31.372Z,53.99
2023-04-13T14:15:25.237Z,52.54
2023-04-13T14:20:16.688Z,51.15
2023-04-13T14:25:12.607Z,51.01
2023-04-13T14:30:12.192Z,49.36
2023-04-13T14:35:06.663Z,48.77
2023-04-13T14:40:00.248Z,49.21
2023-04-13T14:44:55.806Z,49.66
2023-04-13T14:49:53.941Z,50.70
2023-04-13T14:54:51.173Z,49.79
2023-04-13T14:59:48.240Z,47.79
2023-04-13T15:04:43.621Z,46.53
2023-04-13T15:09:42.920Z,46.45
2023-04-13T15:14:36.568Z,47.60
2023-04-13T15:19:40.534Z,41.81
2023-04-13T15:24:32.169Z,41.24
2023-04-13T15:29:25.785Z,41.89
2023-04-13T15:34:21.930Z,41.77
2023-04-13T15:39:12.803Z,41.71
2023-04-13T15:44:06.193Z,41.35
2023-04-13T15:48:56.865Z,41.15
2023-04-13T15:53:56.637Z,41.50
2023-04-13T15:58:48.028Z,39.38
2023-04-13T16:03:45.400Z,37.73
2023-04-13T16:08:41.178Z,36.86
2023-04-13T16:18:36.542Z,35.63
2023-04-13T16:23:32.048Z,36.32
2023-04-13T16:28:31.080Z,35.20
2023-04-13T16:33:33.413Z,35.15
2023-04-13T16:38:26.069Z,34.17
2023-04-13T16:43:17.862Z,34.68
2023-04-13T16:48:18.281Z,34.82
2023-04-13T16:53:13.013Z,37.21
2023-04-13T16:58:06.478Z,38.49
2023-04-13T17:02:59.453Z,39.32
2023-04-13T17:07:54.694Z,40.10
2023-04-13T17:12:53.867Z,40.34
2023-04-13T17:17:45.300Z,40.07
2023-04-13T17:22:39.872Z,40.74
2023-04-13T17:27:32.353Z,42.24
2023-04-13T17:32:28.443Z,46.77
2023-04-13T17:37:24.687Z,50.06
2023-04-13T17:42:33.418Z,48.98
2023-04-13T17:47:30.437Z,47.96
2023-04-13T17:52:23.632Z,47.24
2023-04-13T17:57:22.128Z,48.42
2023-04-13T18:02:14.898Z,48.84
2023-04-13T18:07:10.719Z,49.43
2023-04-13T18:12:05.357Z,50.53
2023-04-13T18:16:57.610Z,51.31
2023-04-13T18:21:49.348Z,52.07
2023-04-13T18:26:47.675Z,53.57
2023-04-13T18:31:42.663Z,51.21
2023-04-13T18:36:37.959Z,51.68
2023-04-13T18:41:29.425Z,52.02
2023-04-13T18:46:26.651Z,51.56
2023-04-13T18:51:16.675Z,51.63
2023-04-13T18:56:08.741Z,53.11
2023-04-13T19:00:58.851Z,53.99
2023-04-13T19:05:53.828Z,52.38
2023-04-13T19:10:45.459Z,54.46
2023-04-13T19:15:39.959Z,56.22
2023-04-13T19:20:30.457Z,55.67
2023-04-13T19:25:29.235Z,56.06
2023-04-13T19:30:24.254Z,53.97
2023-04-13T19:35:16.616Z,55.19
2023-04-13T19:40:14.127Z,55.52
2023-04-13T19:45:09.705Z,56.23
2023-04-13T19:50:00.375Z,55.46
2023-04-13T19:54:53.393Z,55.94
2023-04-13T19:59:44.638Z,55.45
2023-04-13T20:04:42.479Z,55.29
2023-04-13T20:09:37.508Z,56.52
2023-04-13T20:14:29.515Z,57.47
2023-04-13T20:19:21.657Z,57.82
2023-04-13T20:24:14.428Z,58.12
2023-04-13T20:29:05.713Z,54.71
2023-04-13T20:33:56.120Z,56.88
2023-04-13T20:38:47.036Z,55.77
2023-04-13T20:43:42.750Z,58.04
2023-04-13T20:53:41.529Z,56.14
2023-04-13T20:58:33.512Z,57.91
2023-04-13T21:03:32.358Z,58.52
2023-04-13T21:08:24.252Z,58.98
2023-04-13T21:13:22.924Z,58.51
2023-04-13T21:18:13.643Z,61.25
2023-04-13T21:23:07.228Z,61.04
2023-04-13T21:28:03.515Z,58.68
2023-04-13T21:32:54.547Z,61.82
2023-04-13T21:37:45.737Z,60.06
2023-04-13T21:42:45.449Z,59.73
2023-04-13T21:47:42.507Z,59.54
2023-04-13T21:52:33.221Z,59.13
2023-04-13T21:57:24.324Z,61.20
2023-04-13T22:02:24.655Z,62.37
2023-04-13T22:07:16.228Z,62.79
2023-04-13T22:12:06.929Z,60.81
2023-04-13T22:17:02.347Z,61.99
2023-04-13T22:21:57.268Z,63.20
2023-04-13T22:26:50.888Z,62.78
2023-04-13T22:31:43.869Z,62.54
2023-04-13T22:36:36.946Z,61.85
2023-04-13T22:41:33.446Z,62.07
2023-04-13T22:46:26.080Z,60.19
2023-04-13T22:51:17.009Z,59.58
2023-04-13T22:56:08.078Z,60.01
2023-04-13T23:01:04.238Z,60.48
2023-04-13T23:05:54.461Z,61.29
2023-04-13T23:10:44.258Z,59.27
2023-04-13T23:15:37.619Z,62.71
2023-04-13T23:20:35.526Z,62.58
2023-04-13T23:25:26.924Z,57.38
2023-04-13T23:30:21.340Z,57.87
2023-04-13T23:35:13.583Z,62.49
2023-04-13T23:40:08.093Z,63.70
2023-04-13T23:45:03.634Z,64.14
2023-04-13T23:50:09.237Z,63.08
2023-04-13T23:55:04.135Z,64.22
